OTBH/IUD METAR and TAF weather

Enter ICAO airport designator
Station Type Date Time Source
OTBH METAR 2021/05/14 13:56 UTC NOAA

OTBH 141356Z 35015G20KT 9999 CLR 41/02 A2959 RMK AO2A SLP021 T04130021 $


Station Type Date Time Source
OTBH Decoded METAR 2021/05/14 13:56 UTC NOAA

Station name not available
May 14, 2021 - 09:56 AM EDT / 2021.05.14 1356 UTC
Wind: from the N (350 degrees) at 17 MPH (15 KT) gusting to 23 MPH (20 KT):0
Visibility: greater than 7 mile(s):0
Sky conditions: clear
Temperature: 106.3 F (41.3 C)
Dew Point: 35.8 F (2.1 C)
Relative Humidity: 8%
Pressure (altimeter): 29.59 in. Hg (1002 hPa)
ob: OTBH 141356Z 35015G20KT 9999 CLR 41/02 A2959 RMK AO2A SLP021 T04130021
cycle: 14

Station Type Date Time Source
OTBH TAF 2021/05/14 08:03 UTC NOAA

TAF TAF OTBH 140800Z 1408/1514 33015G20KT 9999 SKC QNH2964INS
TEMPO 1410/1414 35018G30KT
BECMG 1415/1416 35010G15KT 9999 SKC QNH2957INS
BECMG 1419/1420 01006KT 9999 SKC QNH2959INS
BECMG 1500/1501 28009KT 9999 SKC QNH2958INS
BECMG 1506/1507 31012G18KT 9999 SKC QNH2962INS
BECMG 1511/1512 32015G20KT 9999 SKC QNH2960INS TX44/1410Z TN27/1502Z

Example: see airport list